createdAt,value
2018-06-03T00:00:24.123Z,95.70
2018-06-03T00:02:52.585Z,95.50
2018-06-03T00:07:49.190Z,95.60
2018-06-03T00:10:17.635Z,95.60
2018-06-03T00:12:46.111Z,95.70
2018-06-03T00:15:14.561Z,95.70
2018-06-03T00:17:43.042Z,95.70
2018-06-03T00:20:11.534Z,95.70
2018-06-03T00:22:39.992Z,96.00
2018-06-03T00:25:08.418Z,96.00
2018-06-03T00:30:05.060Z,96.30
2018-06-03T00:32:33.485Z,96.30
2018-06-03T00:35:01.921Z,96.70
2018-06-03T00:39:58.455Z,96.40
2018-06-03T00:42:26.898Z,96.30
2018-06-03T00:44:55.355Z,96.00
2018-06-03T00:47:23.763Z,96.00
2018-06-03T00:49:52.208Z,96.30
2018-06-03T00:52:20.606Z,96.00
2018-06-03T00:54:49.046Z,96.10
2018-06-03T00:57:17.477Z,96.10
2018-06-03T00:59:45.946Z,96.00
2018-06-03T01:02:14.365Z,96.00
2018-06-03T01:04:42.818Z,96.00
2018-06-03T01:07:11.237Z,96.20
2018-06-03T01:09:39.683Z,96.00
2018-06-03T01:12:08.157Z,96.10
2018-06-03T01:14:36.642Z,96.20
2018-06-03T01:17:09.950Z,96.10
2018-06-03T01:19:38.424Z,96.10
2018-06-03T01:22:06.867Z,95.60
2018-06-03T01:24:35.338Z,95.40
2018-06-03T01:27:03.799Z,95.70
2018-06-03T01:29:32.294Z,96.10
2018-06-03T01:32:00.762Z,96.30
2018-06-03T01:34:29.238Z,96.40
2018-06-03T01:39:26.105Z,97.00
2018-06-03T01:41:54.543Z,97.10
2018-06-03T01:44:22.979Z,97.20
2018-06-03T01:46:51.403Z,97.30
2018-06-03T01:49:19.882Z,97.10
2018-06-03T01:51:48.302Z,96.90
2018-06-03T01:54:16.777Z,96.70
2018-06-03T01:56:45.227Z,96.20
2018-06-03T01:59:13.739Z,96.60
2018-06-03T02:01:42.176Z,96.30
2018-06-03T02:04:10.636Z,96.80
2018-06-03T02:06:39.085Z,96.70
2018-06-03T02:09:07.666Z,96.80
2018-06-03T02:11:36.145Z,96.60
2018-06-03T02:14:04.626Z,96.60
2018-06-03T02:16:33.065Z,96.70
2018-06-03T02:19:01.545Z,96.70
2018-06-03T02:21:30.004Z,96.90
2018-06-03T02:23:58.477Z,96.20
2018-06-03T02:26:26.911Z,96.50
2018-06-03T02:28:55.390Z,96.70
2018-06-03T02:31:23.875Z,96.60
2018-06-03T02:33:52.320Z,96.80
2018-06-03T02:36:20.779Z,96.80
2018-06-03T02:38:49.242Z,96.50
2018-06-03T02:41:17.818Z,96.30
2018-06-03T02:43:46.266Z,96.50
2018-06-03T02:46:14.734Z,96.90
2018-06-03T02:48:43.244Z,96.70
2018-06-03T02:51:11.714Z,97.00
2018-06-03T02:56:08.373Z,97.20
2018-06-03T02:58:36.824Z,97.10
2018-06-03T03:01:05.289Z,97.20
2018-06-03T03:03:33.731Z,97.40
2018-06-03T03:06:02.227Z,96.90
2018-06-03T03:08:30.667Z,96.90
2018-06-03T03:10:59.141Z,96.90
2018-06-03T03:15:55.770Z,97.10
2018-06-03T03:18:24.230Z,97.20
2018-06-03T03:20:52.741Z,96.90
2018-06-03T03:23:21.180Z,97.10
2018-06-03T03:25:49.650Z,97.30
2018-06-03T03:28:18.104Z,97.30
2018-06-03T03:35:42.879Z,97.50
2018-06-03T03:38:11.347Z,97.40
2018-06-03T03:40:39.814Z,97.40
2018-06-03T03:43:08.282Z,97.50
2018-06-03T03:45:36.761Z,97.60
2018-06-03T03:48:05.229Z,97.60
2018-06-03T03:50:33.725Z,97.70
2018-06-03T03:53:02.206Z,97.30
2018-06-03T03:55:30.742Z,97.00
2018-06-03T03:57:59.223Z,97.10
2018-06-03T04:00:27.706Z,97.00
2018-06-03T04:02:56.158Z,96.80
2018-06-03T04:05:24.619Z,96.90
2018-06-03T04:07:53.080Z,96.80
2018-06-03T04:10:21.534Z,97.00
2018-06-03T04:12:49.979Z,96.90
2018-06-03T04:15:18.469Z,96.80
2018-06-03T04:17:47.925Z,96.80
2018-06-03T04:20:16.370Z,96.80
2018-06-03T04:22:44.806Z,96.80
2018-06-03T04:25:13.266Z,96.70
2018-06-03T04:27:41.759Z,96.40
2018-06-03T04:30:10.484Z,96.20
2018-06-03T04:32:38.965Z,96.10
2018-06-03T04:37:35.594Z,96.50
2018-06-03T04:40:04.067Z,96.30
2018-06-03T04:42:32.532Z,96.10
2018-06-03T04:45:00.977Z,96.00
2018-06-03T04:47:29.445Z,95.90
2018-06-03T04:49:57.920Z,95.40
2018-06-03T04:52:26.374Z,95.40
2018-06-03T04:54:54.852Z,95.20
2018-06-03T04:57:23.345Z,95.60
2018-06-03T04:59:51.827Z,95.60
2018-06-03T05:02:20.298Z,95.50
2018-06-03T05:04:48.768Z,95.40
2018-06-03T05:07:17.259Z,95.30
2018-06-03T05:09:45.710Z,95.30
2018-06-03T05:12:14.170Z,95.60
2018-06-03T05:14:42.588Z,95.20
2018-06-03T05:17:11.065Z,95.10
2018-06-03T05:19:39.496Z,94.70
2018-06-03T05:22:07.970Z,94.80
2018-06-03T05:24:36.408Z,94.60
2018-06-03T05:27:04.939Z,94.20
2018-06-03T05:29:33.543Z,94.00
2018-06-03T05:34:30.184Z,93.60
2018-06-03T05:39:26.989Z,92.80
2018-06-03T05:41:55.430Z,92.90
2018-06-03T05:46:52.011Z,92.50
2018-06-03T05:49:20.456Z,92.60
2018-06-03T05:51:48.906Z,93.10
2018-06-03T05:54:17.614Z,92.50
2018-06-03T05:56:46.358Z,92.40
2018-06-03T05:59:15.061Z,92.10
2018-06-03T06:01:43.552Z,91.90
2018-06-03T06:04:12.026Z,91.80
2018-06-03T06:06:40.538Z,91.70
2018-06-03T06:09:09.020Z,91.70
2018-06-03T06:11:37.731Z,91.20
2018-06-03T06:14:06.486Z,91.10
2018-06-03T06:16:34.999Z,91.30
2018-06-03T06:19:03.482Z,91.60
2018-06-03T06:21:31.997Z,91.40
2018-06-03T06:24:00.751Z,91.00
2018-06-03T06:26:29.207Z,90.70
2018-06-03T06:28:58.268Z,90.60
2018-06-03T06:31:27.247Z,90.50
2018-06-03T06:33:55.706Z,90.20
2018-06-03T06:36:24.405Z,90.20
2018-06-03T06:38:53.143Z,89.10
2018-06-03T06:41:21.576Z,88.90
2018-06-03T06:43:50.044Z,89.50
2018-06-03T06:46:18.507Z,88.40
2018-06-03T06:48:46.986Z,88.10
2018-06-03T06:51:15.460Z,87.70
2018-06-03T06:53:44.230Z,87.30
2018-06-03T06:58:40.865Z,86.10
2018-06-03T07:01:09.398Z,88.30
2018-06-03T07:03:37.894Z,86.80
2018-06-03T07:06:05.984Z,86.60
2018-06-03T07:08:34.466Z,85.50
2018-06-03T07:11:02.902Z,83.80
2018-06-03T07:13:32.127Z,82.60
2018-06-03T07:16:00.579Z,83.70
2018-06-03T07:18:29.050Z,82.90
2018-06-03T07:20:57.543Z,81.40
2018-06-03T07:23:26.031Z,80.00
2018-06-03T07:25:54.450Z,79.70
2018-06-03T07:28:22.966Z,77.70
2018-06-03T07:30:51.438Z,78.60
2018-06-03T07:35:48.072Z,78.00
2018-06-03T07:38:16.597Z,75.40
2018-06-03T07:43:13.176Z,74.80
2018-06-03T07:45:41.612Z,75.00
2018-06-03T07:48:10.067Z,74.10
2018-06-03T07:50:38.520Z,73.90
2018-06-03T07:53:07.010Z,73.30
2018-06-03T07:55:35.433Z,72.10
2018-06-03T07:58:03.887Z,72.90
2018-06-03T08:00:32.432Z,71.10
2018-06-03T08:03:00.848Z,71.60
2018-06-03T08:05:29.303Z,69.10
2018-06-03T08:07:57.762Z,71.30
2018-06-03T08:10:26.209Z,71.10
2018-06-03T08:12:54.671Z,69.70
2018-06-03T08:15:23.122Z,67.70
2018-06-03T08:17:51.599Z,70.30
2018-06-03T08:20:20.087Z,67.90
2018-06-03T08:22:48.547Z,66.90
2018-06-03T08:25:17.034Z,66.80
2018-06-03T08:27:45.488Z,68.80
2018-06-03T08:30:13.958Z,66.60
2018-06-03T08:32:42.431Z,64.50
2018-06-03T08:35:10.909Z,64.30
2018-06-03T08:37:39.376Z,66.00
2018-06-03T08:42:36.007Z,68.10
2018-06-03T08:45:04.483Z,68.00
2018-06-03T08:47:32.927Z,65.30
2018-06-03T08:50:01.404Z,64.30
2018-06-03T08:52:29.867Z,64.70
2018-06-03T08:54:58.306Z,65.10
2018-06-03T08:57:26.803Z,64.50
2018-06-03T09:02:23.380Z,59.70
2018-06-03T09:04:51.836Z,59.90
2018-06-03T09:09:48.478Z,59.00
2018-06-03T09:12:16.910Z,59.70
2018-06-03T09:14:45.364Z,61.10
2018-06-03T09:17:13.798Z,56.00
2018-06-03T09:19:42.247Z,58.30
2018-06-03T09:22:10.677Z,55.70
2018-06-03T09:24:39.154Z,55.40
2018-06-03T09:27:07.616Z,55.30
2018-06-03T09:29:36.113Z,54.60
2018-06-03T09:32:04.610Z,51.50
2018-06-03T09:37:01.202Z,51.20
2018-06-03T09:39:29.681Z,51.70
2018-06-03T09:41:58.163Z,51.70
2018-06-03T09:44:26.647Z,51.00
2018-06-03T09:46:55.062Z,52.00
2018-06-03T09:49:23.486Z,52.00
2018-06-03T09:51:51.991Z,52.10
2018-06-03T09:54:20.460Z,50.30
2018-06-03T09:56:48.965Z,50.00
2018-06-03T09:59:17.486Z,49.50
2018-06-03T10:01:45.970Z,51.60
2018-06-03T10:06:42.534Z,50.00
2018-06-03T10:09:11.040Z,50.40
2018-06-03T10:11:39.512Z,49.20
2018-06-03T10:14:07.934Z,50.50
2018-06-03T10:16:36.395Z,45.90
2018-06-03T10:19:04.894Z,48.00
2018-06-03T10:21:33.415Z,50.60
2018-06-03T10:24:01.803Z,48.60
2018-06-03T10:26:30.244Z,45.10
2018-06-03T10:28:58.679Z,46.30
2018-06-03T10:31:28.253Z,46.50
2018-06-03T10:33:56.741Z,42.50
2018-06-03T10:36:25.198Z,40.10
2018-06-03T10:38:53.635Z,38.60
2018-06-03T10:41:22.081Z,42.40
2018-06-03T10:43:50.645Z,39.80
2018-06-03T10:46:19.126Z,37.90
2018-06-03T10:48:47.559Z,39.90
2018-06-03T10:51:16.025Z,38.80
2018-06-03T10:53:44.462Z,38.90
2018-06-03T10:58:41.064Z,45.00
2018-06-03T11:01:09.539Z,41.10
2018-06-03T11:03:37.981Z,38.90
2018-06-03T11:06:06.494Z,39.30
2018-06-03T11:08:34.960Z,41.70
2018-06-03T11:11:03.454Z,42.40
2018-06-03T11:13:31.908Z,43.20
2018-06-03T11:16:00.354Z,39.60
2018-06-03T11:18:28.768Z,41.30
2018-06-03T11:23:25.382Z,38.90
2018-06-03T11:25:53.808Z,39.70
2018-06-03T11:28:22.271Z,41.70
2018-06-03T11:35:47.021Z,44.00
2018-06-03T11:38:15.749Z,47.10
2018-06-03T11:40:44.170Z,47.70
2018-06-03T11:43:12.676Z,49.60
2018-06-03T11:45:41.094Z,43.80
2018-06-03T11:48:09.576Z,45.20
2018-06-03T11:50:38.010Z,45.80
2018-06-03T11:53:06.500Z,43.80
2018-06-03T11:55:34.933Z,46.80
2018-06-03T12:01:04.685Z,42.90
2018-06-03T12:03:33.171Z,43.90
2018-06-03T12:06:01.621Z,44.90
2018-06-03T12:08:30.112Z,47.00
2018-06-03T12:10:58.670Z,45.80
2018-06-03T12:13:27.170Z,45.70
2018-06-03T12:18:23.768Z,45.90
2018-06-03T12:20:52.391Z,45.10
2018-06-03T12:23:20.904Z,41.50
2018-06-03T12:25:49.397Z,46.00
2018-06-03T12:28:17.852Z,44.70
2018-06-03T12:30:46.314Z,44.30
2018-06-03T12:33:14.784Z,45.00
2018-06-03T12:35:43.209Z,44.40
2018-06-03T12:38:11.662Z,42.60
2018-06-03T12:43:08.276Z,42.10
2018-06-03T12:45:36.735Z,41.00
2018-06-03T12:48:05.439Z,38.10
2018-06-03T12:50:33.918Z,41.90
2018-06-03T12:53:02.399Z,44.30
2018-06-03T12:55:30.862Z,41.80
2018-06-03T12:57:59.342Z,40.50
2018-06-03T13:00:27.794Z,37.70
2018-06-03T13:02:56.256Z,39.00
2018-06-03T13:05:24.708Z,38.40
2018-06-03T13:07:53.170Z,38.40
2018-06-03T13:10:21.662Z,41.80
2018-06-03T13:12:50.111Z,42.80
2018-06-03T13:15:18.603Z,40.50
2018-06-03T13:17:47.054Z,42.90
2018-06-03T13:20:15.531Z,40.90
2018-06-03T13:25:12.147Z,42.90
2018-06-03T13:27:40.606Z,41.00
2018-06-03T13:30:09.102Z,40.50
2018-06-03T13:32:37.526Z,39.60
2018-06-03T13:35:06.008Z,36.80
2018-06-03T13:37:34.724Z,35.30
2018-06-03T13:40:03.186Z,37.70
2018-06-03T13:42:31.610Z,34.80
2018-06-03T13:45:00.074Z,34.70
2018-06-03T13:47:28.574Z,35.20
2018-06-03T13:49:57.043Z,34.10
2018-06-03T13:52:25.535Z,35.40
2018-06-03T13:54:53.958Z,35.20
2018-06-03T13:57:22.683Z,32.90
2018-06-03T13:59:51.167Z,32.40
2018-06-03T14:02:19.622Z,31.30
2018-06-03T14:04:48.044Z,31.50
2018-06-03T14:07:16.733Z,30.80
2018-06-03T14:09:45.209Z,31.40
2018-06-03T14:12:13.702Z,30.70
2018-06-03T14:14:42.150Z,30.00
2018-06-03T14:17:13.927Z,29.60
2018-06-03T14:19:42.629Z,30.20
2018-06-03T14:22:11.107Z,28.70
2018-06-03T14:24:39.575Z,27.10
2018-06-03T14:27:08.039Z,28.60
2018-06-03T14:29:36.472Z,28.60
2018-06-03T14:32:04.953Z,28.80
2018-06-03T14:34:33.378Z,28.80
2018-06-03T14:37:01.825Z,29.70
2018-06-03T14:39:30.296Z,27.20
2018-06-03T14:41:58.717Z,25.40
2018-06-03T14:44:27.206Z,25.70
2018-06-03T14:46:55.653Z,26.40
2018-06-03T14:49:24.405Z,26.80
2018-06-03T14:51:53.478Z,27.30
2018-06-03T14:54:21.929Z,29.00
2018-06-03T14:56:50.354Z,28.30
2018-06-03T14:59:18.756Z,27.70
2018-06-03T15:01:47.202Z,27.30
2018-06-03T15:04:15.676Z,27.70
2018-06-03T15:06:44.105Z,27.40
2018-06-03T15:09:12.790Z,26.40
2018-06-03T15:11:41.474Z,28.00
2018-06-03T15:14:09.974Z,28.10
2018-06-03T15:16:38.794Z,27.70
2018-06-03T15:19:07.255Z,27.30
2018-06-03T15:21:35.721Z,27.00
2018-06-03T15:24:04.192Z,25.90
2018-06-03T15:26:32.657Z,25.30
2018-06-03T15:29:01.115Z,26.80
2018-06-03T15:31:29.643Z,27.10
2018-06-03T15:33:58.122Z,27.50
2018-06-03T15:36:26.568Z,27.80
2018-06-03T15:38:55.017Z,27.50
2018-06-03T15:41:23.490Z,28.80
2018-06-03T15:43:51.980Z,31.50
2018-06-03T15:46:20.397Z,37.10
2018-06-03T15:48:48.866Z,40.40
2018-06-03T15:51:17.306Z,42.80
2018-06-03T15:53:45.715Z,42.50
2018-06-03T15:56:14.219Z,44.40
2018-06-03T15:58:42.666Z,42.60
2018-06-03T16:01:11.127Z,45.50
2018-06-03T16:03:39.562Z,42.70
2018-06-03T16:06:11.295Z,43.50
2018-06-03T16:08:39.975Z,44.80
2018-06-03T16:11:08.495Z,43.10
2018-06-03T16:13:37.212Z,46.40
2018-06-03T16:16:05.699Z,45.30
2018-06-03T16:18:34.126Z,45.80
2018-06-03T16:21:02.601Z,43.30
2018-06-03T16:23:31.034Z,42.10
2018-06-03T16:25:59.503Z,46.90
2018-06-03T16:28:27.941Z,46.40
2018-06-03T16:33:24.655Z,44.40
2018-06-03T16:35:53.066Z,46.20
2018-06-03T16:40:49.674Z,47.70
2018-06-03T16:43:18.137Z,49.20
2018-06-03T16:45:46.606Z,50.80
2018-06-03T16:48:15.034Z,50.80
2018-06-03T16:50:43.477Z,52.40
2018-06-03T16:53:11.905Z,51.90
2018-06-03T16:58:08.526Z,52.80
2018-06-03T17:00:37.034Z,52.40
2018-06-03T17:03:05.503Z,54.00
2018-06-03T17:05:34.024Z,51.40
2018-06-03T17:08:02.495Z,52.10
2018-06-03T17:10:30.966Z,50.80
2018-06-03T17:15:27.567Z,48.80
2018-06-03T17:18:02.248Z,46.80
2018-06-03T17:20:30.866Z,47.10
2018-06-03T17:22:59.390Z,45.90
2018-06-03T17:25:27.870Z,47.20
2018-06-03T17:28:04.511Z,46.90
2018-06-03T17:33:01.512Z,47.30
2018-06-03T17:37:58.150Z,47.10
2018-06-03T17:40:26.603Z,49.00
2018-06-03T17:42:55.080Z,49.20
2018-06-03T17:45:23.550Z,48.70
2018-06-03T17:47:52.015Z,50.30
2018-06-03T17:50:20.475Z,48.40
2018-06-03T17:52:49.015Z,49.40
2018-06-03T17:55:17.462Z,49.50
2018-06-03T17:57:46.315Z,52.70
2018-06-03T18:02:42.934Z,52.60
2018-06-03T18:05:11.367Z,54.30
2018-06-03T18:07:40.690Z,54.30
2018-06-03T18:10:09.325Z,54.80
2018-06-03T18:15:05.958Z,55.90
2018-06-03T18:17:34.474Z,56.70
2018-06-03T18:20:02.939Z,58.10
2018-06-03T18:22:31.546Z,58.00
2018-06-03T18:25:00.040Z,59.00
2018-06-03T18:27:28.486Z,58.40
2018-06-03T18:32:27.202Z,60.00
2018-06-03T18:34:56.397Z,60.20
2018-06-03T18:37:26.617Z,59.60
2018-06-03T18:39:55.690Z,61.80
2018-06-03T18:44:53.488Z,63.20
2018-06-03T18:47:22.694Z,63.30
2018-06-03T18:49:52.497Z,64.50
2018-06-03T18:52:21.694Z,64.50
2018-06-03T18:54:50.827Z,64.80
2018-06-03T18:57:19.852Z,65.70
2018-06-03T18:59:50.065Z,66.50
2018-06-03T19:02:18.498Z,67.80
2018-06-03T19:04:46.953Z,66.50
2018-06-03T19:07:15.429Z,67.30
2018-06-03T19:09:43.906Z,68.50
2018-06-03T19:12:12.346Z,69.60
2018-06-03T19:14:40.833Z,70.50
2018-06-03T19:17:09.940Z,70.80
2018-06-03T19:19:38.389Z,71.70
2018-06-03T19:22:06.849Z,72.10
2018-06-03T19:24:35.306Z,72.30
2018-06-03T19:27:03.753Z,72.50
2018-06-03T19:29:32.234Z,72.10
2018-06-03T19:32:00.719Z,72.30
2018-06-03T19:34:29.234Z,72.70
2018-06-03T19:36:58.726Z,72.90
2018-06-03T19:39:27.189Z,72.10
2018-06-03T19:41:55.695Z,72.30
2018-06-03T19:44:24.154Z,73.00
2018-06-03T19:46:52.631Z,73.20
2018-06-03T19:49:21.107Z,74.40
2018-06-03T19:51:49.569Z,76.20
2018-06-03T19:54:18.032Z,77.10
2018-06-03T19:56:46.531Z,77.30
2018-06-03T19:59:14.988Z,78.00
2018-06-03T20:01:43.471Z,78.20
2018-06-03T20:04:11.918Z,78.00
2018-06-03T20:06:40.401Z,78.20
2018-06-03T20:09:08.871Z,77.80
2018-06-03T20:14:05.557Z,77.70
2018-06-03T20:16:34.020Z,77.80
2018-06-03T20:21:30.681Z,78.40
2018-06-03T20:23:59.143Z,79.50
2018-06-03T20:26:27.633Z,78.80
2018-06-03T20:28:56.067Z,79.00
2018-06-03T20:31:24.538Z,79.40
2018-06-03T20:33:53.026Z,79.30
2018-06-03T20:36:21.487Z,78.70
2018-06-03T20:38:49.986Z,78.40
2018-06-03T20:41:18.521Z,80.20
2018-06-03T20:43:46.968Z,79.60
2018-06-03T20:46:15.413Z,79.00
2018-06-03T20:48:43.858Z,79.50
2018-06-03T20:53:40.446Z,80.80
2018-06-03T20:56:08.870Z,80.90
2018-06-03T20:58:37.350Z,80.60
2018-06-03T21:01:06.395Z,81.00
2018-06-03T21:03:34.851Z,81.60
2018-06-03T21:06:03.323Z,81.90
2018-06-03T21:08:31.791Z,82.00
2018-06-03T21:11:00.262Z,82.30
2018-06-03T21:13:28.723Z,82.70
2018-06-03T21:15:57.187Z,82.40
2018-06-03T21:18:25.637Z,82.30
2018-06-03T21:20:54.081Z,83.10
2018-06-03T21:23:22.531Z,82.90
2018-06-03T21:25:51.040Z,83.30
2018-06-03T21:28:19.502Z,84.20
2018-06-03T21:30:47.974Z,85.00
2018-06-03T21:33:16.510Z,84.50
2018-06-03T21:35:44.965Z,85.00
2018-06-03T21:38:13.418Z,84.80
2018-06-03T21:40:41.899Z,85.20
2018-06-03T21:43:10.337Z,85.80
2018-06-03T21:45:38.809Z,85.80
2018-06-03T21:48:07.241Z,85.70
2018-06-03T21:50:35.695Z,86.40
2018-06-03T21:53:04.156Z,86.30
2018-06-03T21:55:32.629Z,86.30
2018-06-03T21:58:01.087Z,87.80
2018-06-03T22:00:29.557Z,88.00
2018-06-03T22:02:58.014Z,89.00
2018-06-03T22:05:26.632Z,88.80
2018-06-03T22:10:23.274Z,89.40
2018-06-03T22:12:51.761Z,88.40
2018-06-03T22:15:20.228Z,88.70
2018-06-03T22:17:48.718Z,89.40
2018-06-03T22:20:17.166Z,89.90
2018-06-03T22:22:45.623Z,90.10
2018-06-03T22:25:14.099Z,90.20
2018-06-03T22:27:42.546Z,90.00
2018-06-03T22:30:11.021Z,90.00
2018-06-03T22:32:39.548Z,90.40
2018-06-03T22:35:08.062Z,90.70
2018-06-03T22:37:36.573Z,91.10
2018-06-03T22:40:05.100Z,90.80
2018-06-03T22:42:33.546Z,91.10
2018-06-03T22:47:32.324Z,91.20
2018-06-03T22:50:00.785Z,91.40
2018-06-03T22:52:29.240Z,91.10
2018-06-03T22:54:58.174Z,91.20
2018-06-03T22:57:45.294Z,91.10
2018-06-03T23:00:22.083Z,91.20
2018-06-03T23:02:55.893Z,91.50
2018-06-03T23:07:52.904Z,91.80
2018-06-03T23:10:21.654Z,91.80
2018-06-03T23:12:50.079Z,92.00
2018-06-03T23:15:18.590Z,92.00
2018-06-03T23:17:47.059Z,92.10
2018-06-03T23:20:15.570Z,92.30
2018-06-03T23:22:44.006Z,92.20
2018-06-03T23:25:12.490Z,92.40
2018-06-03T23:27:40.986Z,92.20
2018-06-03T23:30:09.478Z,92.30
2018-06-03T23:32:37.987Z,92.30
2018-06-03T23:35:06.406Z,92.60
2018-06-03T23:37:34.891Z,92.50
2018-06-03T23:40:03.403Z,92.50
2018-06-03T23:42:31.865Z,92.30
2018-06-03T23:45:00.322Z,92.30
2018-06-03T23:47:28.790Z,92.60
2018-06-03T23:49:57.270Z,92.20
2018-06-03T23:52:25.724Z,92.70
2018-06-03T23:54:54.182Z,92.90
2018-06-03T23:57:22.718Z,92.50
2018-06-03T23:59:51.162Z,93.00
